createdAt,value
2023-08-03T00:01:05.113Z,68.95
2023-08-03T00:03:33.275Z,69.17
2023-08-03T00:06:02.915Z,69.78
2023-08-03T00:08:30.931Z,70.36
2023-08-03T00:10:58.874Z,70.39
2023-08-03T00:13:26.828Z,70.37
2023-08-03T00:15:54.813Z,70.96
2023-08-03T00:18:22.776Z,71.68
2023-08-03T00:20:51.606Z,71.80
2023-08-03T00:23:20.991Z,72.04
2023-08-03T00:25:48.924Z,71.65
2023-08-03T00:28:17.002Z,71.62
2023-08-03T00:30:45.054Z,71.54
2023-08-03T00:33:13.017Z,71.63
2023-08-03T00:35:40.959Z,71.81
2023-08-03T00:38:08.924Z,71.97
2023-08-03T00:40:38.301Z,71.49
2023-08-03T00:43:06.465Z,71.76
2023-08-03T00:45:34.488Z,72.05
2023-08-03T00:48:02.537Z,72.42
2023-08-03T00:50:30.590Z,72.17
2023-08-03T00:52:58.702Z,72.37
2023-08-03T00:55:26.707Z,72.88
2023-08-03T00:57:56.076Z,72.75
2023-08-03T01:00:25.676Z,72.52
2023-08-03T01:02:53.822Z,72.84
2023-08-03T01:05:21.871Z,73.00
2023-08-03T01:07:49.845Z,73.37
2023-08-03T01:10:18.022Z,73.40
2023-08-03T01:12:46.344Z,73.49
2023-08-03T01:15:15.843Z,73.98
2023-08-03T01:17:43.882Z,74.05
2023-08-03T01:20:12.547Z,73.77
2023-08-03T01:22:44.021Z,73.93
2023-08-03T01:25:12.434Z,74.26
2023-08-03T01:27:40.463Z,74.17
2023-08-03T01:30:09.503Z,74.60
2023-08-03T01:32:37.626Z,74.77
2023-08-03T01:35:07.372Z,75.45
2023-08-03T01:37:36.380Z,75.82
2023-08-03T01:40:07.043Z,76.28
2023-08-03T01:42:35.168Z,76.48
2023-08-03T01:45:03.162Z,77.15
2023-08-03T01:47:31.136Z,77.60
2023-08-03T01:49:59.087Z,77.79
2023-08-03T01:52:27.166Z,77.39
2023-08-03T01:54:55.280Z,77.76
2023-08-03T01:57:24.601Z,78.52
2023-08-03T01:59:52.558Z,79.27
2023-08-03T02:02:20.504Z,79.51
2023-08-03T02:04:48.456Z,79.32
2023-08-03T02:07:19.131Z,79.52
2023-08-03T02:09:47.060Z,80.10
2023-08-03T02:12:15.005Z,80.30
2023-08-03T02:14:44.320Z,80.87
2023-08-03T02:17:12.324Z,81.33
2023-08-03T02:19:40.265Z,81.56
2023-08-03T02:22:08.579Z,81.29
2023-08-03T02:24:36.559Z,81.25
2023-08-03T02:27:04.527Z,81.33
2023-08-03T02:29:32.540Z,80.96
2023-08-03T02:32:02.074Z,80.79
2023-08-03T02:34:30.031Z,81.05
2023-08-03T02:36:57.963Z,81.23
2023-08-03T02:39:25.911Z,81.44
2023-08-03T02:41:54.253Z,81.59
2023-08-03T02:44:22.826Z,81.85
2023-08-03T02:46:50.785Z,82.00
2023-08-03T02:49:20.130Z,82.18
2023-08-03T02:51:48.098Z,82.85
2023-08-03T02:54:16.086Z,82.24
2023-08-03T02:56:44.059Z,81.86
2023-08-03T02:59:12.233Z,81.62
2023-08-03T03:01:40.276Z,81.87
2023-08-03T03:04:08.291Z,82.12
2023-08-03T03:06:39.852Z,82.07
2023-08-03T03:09:07.933Z,82.41
2023-08-03T03:11:35.874Z,82.87
2023-08-03T03:14:04.337Z,83.13
2023-08-03T03:16:32.317Z,82.85
2023-08-03T03:19:00.261Z,82.60
2023-08-03T03:21:28.299Z,83.36
2023-08-03T03:23:57.684Z,83.62
2023-08-03T03:26:25.619Z,84.33
2023-08-03T03:28:53.568Z,83.96
2023-08-03T03:31:21.535Z,84.23
2023-08-03T03:33:49.505Z,84.57
2023-08-03T03:36:17.445Z,84.68
2023-08-03T03:38:45.388Z,85.30
2023-08-03T03:41:14.715Z,85.69
2023-08-03T03:43:42.669Z,85.86
2023-08-03T03:46:10.668Z,86.12
2023-08-03T03:48:38.724Z,85.97
2023-08-03T03:51:07.088Z,86.37
2023-08-03T03:53:35.091Z,86.57
2023-08-03T03:56:04.245Z,86.84
2023-08-03T03:58:33.744Z,87.25
2023-08-03T04:01:01.800Z,87.16
2023-08-03T04:03:29.913Z,87.36
2023-08-03T04:05:57.894Z,87.92
2023-08-03T04:08:25.945Z,87.65
2023-08-03T04:10:53.884Z,87.84
2023-08-03T04:13:21.847Z,88.24
2023-08-03T04:15:51.207Z,88.08
2023-08-03T04:18:19.152Z,88.08
2023-08-03T04:20:47.084Z,87.88
2023-08-03T04:23:15.168Z,88.00
2023-08-03T04:25:43.107Z,87.09
2023-08-03T04:28:11.229Z,86.06
2023-08-03T04:30:39.293Z,85.41
2023-08-03T04:33:08.639Z,84.63
2023-08-03T04:35:36.564Z,84.18
2023-08-03T04:38:04.520Z,83.04
2023-08-03T04:40:32.493Z,82.27
2023-08-03T04:43:00.436Z,79.52
2023-08-03T04:45:28.434Z,78.49
2023-08-03T04:47:56.473Z,77.70
2023-08-03T04:50:25.943Z,75.46
2023-08-03T04:52:53.909Z,75.14
2023-08-03T04:55:21.848Z,73.24
2023-08-03T04:57:49.821Z,71.90
2023-08-03T05:00:20.041Z,71.18
2023-08-03T05:02:49.933Z,69.69
2023-08-03T05:05:18.035Z,67.84
2023-08-03T05:07:47.393Z,66.72
2023-08-03T05:10:15.337Z,66.20
2023-08-03T05:12:44.334Z,65.38
2023-08-03T05:15:12.286Z,64.54
2023-08-03T05:17:40.508Z,63.22
2023-08-03T05:20:10.257Z,60.83
2023-08-03T05:22:38.230Z,60.50
2023-08-03T05:25:08.193Z,60.07
2023-08-03T05:27:36.421Z,58.55
2023-08-03T05:30:04.637Z,57.89
2023-08-03T05:32:32.654Z,57.47
2023-08-03T05:35:00.672Z,56.88
2023-08-03T05:37:28.663Z,55.49
2023-08-03T05:39:56.919Z,54.68
2023-08-03T05:42:27.056Z,52.97
2023-08-03T05:44:55.379Z,53.19
2023-08-03T05:47:23.372Z,52.79
2023-08-03T05:49:51.400Z,51.46
2023-08-03T05:52:19.382Z,50.71
2023-08-03T05:54:50.848Z,51.09
2023-08-03T05:57:20.001Z,49.72
2023-08-03T05:59:49.397Z,50.24
2023-08-03T06:02:30.718Z,50.09
2023-08-03T06:04:58.714Z,48.80
2023-08-03T06:07:27.058Z,48.11
2023-08-03T06:09:55.106Z,47.05
2023-08-03T06:12:23.121Z,47.96
2023-08-03T06:14:52.464Z,45.99
2023-08-03T06:17:24.222Z,46.06
2023-08-03T06:19:53.177Z,45.19
2023-08-03T06:22:23.468Z,44.59
2023-08-03T06:24:52.693Z,45.15
2023-08-03T06:27:20.654Z,44.48
2023-08-03T06:29:48.658Z,43.23
2023-08-03T06:32:25.418Z,43.09
2023-08-03T06:34:53.486Z,42.70
2023-08-03T06:37:22.187Z,42.36
2023-08-03T06:39:51.353Z,41.33
2023-08-03T06:42:19.399Z,42.35
2023-08-03T06:44:47.572Z,40.30
2023-08-03T06:47:15.582Z,40.05
2023-08-03T06:49:44.987Z,40.09
2023-08-03T06:52:13.157Z,40.38
2023-08-03T06:54:41.268Z,38.89
2023-08-03T06:57:09.262Z,38.81
2023-08-03T06:59:37.211Z,38.70
2023-08-03T07:02:05.428Z,38.40
2023-08-03T07:04:33.404Z,38.87
2023-08-03T07:07:02.770Z,38.51
2023-08-03T07:09:30.731Z,38.04
2023-08-03T07:12:00.818Z,37.72
2023-08-03T07:14:28.878Z,37.98
2023-08-03T07:16:56.828Z,38.49
2023-08-03T07:19:24.774Z,39.73
2023-08-03T07:21:52.752Z,39.19
2023-08-03T07:24:22.177Z,39.48
2023-08-03T07:26:50.590Z,38.80
2023-08-03T07:29:18.595Z,38.21
2023-08-03T07:31:46.860Z,38.50
2023-08-03T07:34:15.376Z,38.47
2023-08-03T07:36:43.394Z,38.57
2023-08-03T07:39:11.338Z,39.52
2023-08-03T07:41:40.784Z,37.95
2023-08-03T07:44:08.749Z,37.91
2023-08-03T07:46:36.792Z,37.36
2023-08-03T07:49:04.836Z,37.70
2023-08-03T07:51:32.894Z,37.12
2023-08-03T07:54:00.888Z,36.77
2023-08-03T07:56:29.705Z,35.75
2023-08-03T07:59:00.180Z,36.23
2023-08-03T08:01:28.449Z,35.80
2023-08-03T08:03:56.566Z,36.60
2023-08-03T08:06:24.626Z,36.90
2023-08-03T08:08:53.785Z,35.68
2023-08-03T08:11:21.847Z,35.03
2023-08-03T08:13:49.945Z,35.91
2023-08-03T08:16:19.691Z,36.27
2023-08-03T08:18:47.868Z,35.26
2023-08-03T08:21:15.897Z,35.70
2023-08-03T08:23:43.962Z,36.19
2023-08-03T08:26:14.044Z,35.64
2023-08-03T08:28:47.931Z,35.62
2023-08-03T08:31:27.588Z,34.61
2023-08-03T08:33:55.685Z,35.49
2023-08-03T08:36:23.819Z,35.08
2023-08-03T08:38:51.774Z,33.98
2023-08-03T08:41:19.741Z,34.42
2023-08-03T08:43:47.916Z,33.66
2023-08-03T08:46:16.025Z,33.59
2023-08-03T08:51:57.145Z,33.11
2023-08-03T09:01:51.271Z,31.12
2023-08-03T09:04:32.345Z,30.89
2023-08-03T09:07:01.515Z,31.53
2023-08-03T09:09:30.848Z,32.10
2023-08-03T09:11:58.938Z,31.64
2023-08-03T09:14:27.099Z,32.80
2023-08-03T09:16:55.229Z,31.64
2023-08-03T09:20:43.893Z,31.85
2023-08-03T09:25:06.917Z,31.38
2023-08-03T09:32:50.355Z,30.95
2023-08-03T09:35:21.918Z,31.28
2023-08-03T09:37:51.215Z,31.91
2023-08-03T09:40:21.362Z,30.57
2023-08-03T09:42:50.304Z,31.50
2023-08-03T09:47:52.175Z,30.82
2023-08-03T09:50:24.272Z,30.68
2023-08-03T09:52:54.556Z,30.86
2023-08-03T09:55:29.459Z,30.98
2023-08-03T09:58:02.369Z,30.39
2023-08-03T10:00:31.650Z,31.41
2023-08-03T10:03:06.006Z,30.52
2023-08-03T10:05:40.825Z,30.15
2023-08-03T10:08:15.680Z,31.00
2023-08-03T10:10:48.544Z,31.09
2023-08-03T10:13:17.652Z,30.28
2023-08-03T10:15:45.662Z,31.07
2023-08-03T10:18:14.923Z,30.36
2023-08-03T10:20:45.324Z,31.14
2023-08-03T10:23:16.366Z,31.53
2023-08-03T10:25:55.072Z,31.00
2023-08-03T10:28:24.321Z,31.42
2023-08-03T10:31:12.171Z,30.11
2023-08-03T10:34:05.689Z,30.94
2023-08-03T10:36:42.267Z,31.60
2023-08-03T10:39:15.201Z,31.19
2023-08-03T10:41:43.406Z,30.95
2023-08-03T10:44:29.722Z,30.21
2023-08-03T10:47:01.462Z,30.67
2023-08-03T10:49:51.355Z,30.06
2023-08-03T10:52:26.022Z,30.90
2023-08-03T10:54:54.312Z,29.61
2023-08-03T10:57:26.344Z,29.01
2023-08-03T10:59:55.660Z,29.49
2023-08-03T11:02:29.999Z,29.93
2023-08-03T11:04:59.370Z,29.77
2023-08-03T11:07:31.822Z,28.55
2023-08-03T11:10:00.025Z,28.85
2023-08-03T11:12:29.477Z,29.45
2023-08-03T11:14:59.081Z,29.42
2023-08-03T11:17:28.818Z,29.04
2023-08-03T11:19:58.038Z,29.84
2023-08-03T11:22:28.335Z,29.11
2023-08-03T11:24:59.607Z,28.69
2023-08-03T11:27:27.715Z,28.71
2023-08-03T11:29:57.846Z,28.63
2023-08-03T11:32:27.658Z,28.93
2023-08-03T11:35:00.443Z,30.06
2023-08-03T11:37:33.611Z,29.13
2023-08-03T11:40:05.321Z,28.21
2023-08-03T11:42:35.770Z,28.09
2023-08-03T11:45:03.735Z,27.80
2023-08-03T11:47:44.555Z,27.90
2023-08-03T11:50:13.703Z,29.32
2023-08-03T11:52:43.200Z,27.57
2023-08-03T11:55:11.638Z,28.71
2023-08-03T12:00:25.601Z,29.45
2023-08-03T12:02:54.879Z,29.47
2023-08-03T12:05:23.324Z,28.77
2023-08-03T12:10:29.620Z,29.06
2023-08-03T12:17:59.376Z,29.90
2023-08-03T12:20:27.603Z,30.44
2023-08-03T12:23:01.783Z,29.55
2023-08-03T12:25:32.265Z,28.79
2023-08-03T12:28:01.678Z,28.93
2023-08-03T12:30:29.688Z,28.36
2023-08-03T12:32:57.698Z,28.74
2023-08-03T12:35:25.786Z,29.18
2023-08-03T12:37:58.180Z,28.56
2023-08-03T12:40:27.280Z,28.52
2023-08-03T12:42:57.299Z,28.81
2023-08-03T12:45:26.407Z,29.14
2023-08-03T12:47:56.648Z,28.98
2023-08-03T12:50:24.889Z,29.80
2023-08-03T12:52:54.470Z,29.65
2023-08-03T12:55:22.732Z,28.74
2023-08-03T12:57:51.632Z,29.22
2023-08-03T13:00:24.210Z,29.21
2023-08-03T13:02:52.331Z,29.56
2023-08-03T13:05:20.743Z,29.81
2023-08-03T13:07:48.850Z,29.49
2023-08-03T13:10:16.859Z,29.49
2023-08-03T13:12:44.839Z,29.40
2023-08-03T13:15:13.207Z,29.00
2023-08-03T13:17:42.837Z,29.43
2023-08-03T13:20:11.680Z,29.70
2023-08-03T13:22:40.070Z,29.62
2023-08-03T13:25:08.680Z,29.45
2023-08-03T13:27:36.613Z,29.19
2023-08-03T13:30:04.974Z,29.55
2023-08-03T13:32:33.013Z,29.85
2023-08-03T13:35:02.459Z,29.21
2023-08-03T13:37:30.420Z,29.77
2023-08-03T13:39:58.348Z,29.61
2023-08-03T13:42:26.294Z,29.17
2023-08-03T13:44:54.231Z,29.12
2023-08-03T13:47:22.203Z,29.08
2023-08-03T13:49:50.171Z,29.49
2023-08-03T13:52:19.552Z,29.49
2023-08-03T13:54:47.462Z,28.87
2023-08-03T13:57:34.747Z,29.69
2023-08-03T14:00:08.027Z,29.72
2023-08-03T14:05:08.002Z,29.58
2023-08-03T14:22:45.892Z,28.72
2023-08-03T14:27:52.728Z,28.42
2023-08-03T14:30:21.450Z,27.56
2023-08-03T14:32:49.798Z,28.59
2023-08-03T14:37:51.191Z,28.74
2023-08-03T14:40:19.154Z,27.84
2023-08-03T14:42:56.391Z,28.95
2023-08-03T14:45:35.107Z,27.67
2023-08-03T14:48:07.248Z,28.06
2023-08-03T14:50:38.030Z,29.54
2023-08-03T14:53:07.469Z,27.92
2023-08-03T14:58:23.251Z,27.93
2023-08-03T15:00:51.201Z,27.70
2023-08-03T15:03:19.873Z,29.90
2023-08-03T15:05:48.973Z,30.28
2023-08-03T15:08:18.631Z,30.48
2023-08-03T15:10:50.414Z,31.65
2023-08-03T15:13:19.422Z,31.67
2023-08-03T15:15:51.803Z,30.55
2023-08-03T15:18:23.432Z,31.28
2023-08-03T15:23:24.414Z,32.08
2023-08-03T15:26:00.650Z,32.59
2023-08-03T15:31:01.761Z,29.59
2023-08-03T15:33:32.798Z,30.25
2023-08-03T15:36:04.430Z,30.55
2023-08-03T15:38:39.585Z,30.16
2023-08-03T15:41:10.420Z,30.91
2023-08-03T15:43:44.208Z,30.30
2023-08-03T15:46:20.160Z,31.04
2023-08-03T15:51:25.056Z,30.75
2023-08-03T15:54:04.044Z,31.38
2023-08-03T15:56:39.418Z,31.86
2023-08-03T15:59:07.603Z,31.44
2023-08-03T16:01:35.610Z,32.22
2023-08-03T16:04:03.598Z,30.94
2023-08-03T16:06:31.490Z,30.48
2023-08-03T16:09:00.787Z,31.57
2023-08-03T16:11:51.409Z,31.81
2023-08-03T16:14:16.614Z,31.95
2023-08-03T16:16:44.897Z,32.60
2023-08-03T16:19:15.815Z,32.59
2023-08-03T16:21:43.997Z,33.32
2023-08-03T16:24:13.429Z,32.59
2023-08-03T16:26:42.453Z,32.37
2023-08-03T16:29:10.356Z,33.11
2023-08-03T16:31:39.102Z,32.92
2023-08-03T16:34:12.438Z,32.79
2023-08-03T16:36:42.264Z,32.08
2023-08-03T16:39:10.735Z,32.42
2023-08-03T16:41:40.114Z,33.48
2023-08-03T16:44:08.063Z,33.98
2023-08-03T16:46:36.014Z,34.04
2023-08-03T16:49:04.571Z,34.31
2023-08-03T16:51:32.581Z,34.77
2023-08-03T16:54:00.501Z,34.32
2023-08-03T16:56:28.451Z,34.85
2023-08-03T16:58:57.739Z,34.45
2023-08-03T17:01:25.779Z,34.95
2023-08-03T17:03:53.741Z,35.30
2023-08-03T17:06:22.335Z,35.67
2023-08-03T17:08:50.285Z,36.61
2023-08-03T17:11:18.329Z,36.22
2023-08-03T17:13:46.275Z,37.20
2023-08-03T17:16:15.610Z,37.54
2023-08-03T17:18:43.586Z,37.89
2023-08-03T17:21:11.543Z,38.40
2023-08-03T17:23:39.459Z,38.61
2023-08-03T17:26:07.365Z,39.11
2023-08-03T17:28:35.331Z,39.32
2023-08-03T17:31:05.085Z,39.07
2023-08-03T17:33:34.867Z,39.17
2023-08-03T17:36:10.362Z,40.54
2023-08-03T17:38:38.494Z,40.90
2023-08-03T17:41:06.512Z,40.96
2023-08-03T17:43:34.501Z,42.15
2023-08-03T17:46:07.939Z,42.06
2023-08-03T17:48:37.922Z,42.02
2023-08-03T17:51:07.551Z,41.77
2023-08-03T17:53:36.007Z,41.68
2023-08-03T17:56:11.015Z,41.87
2023-08-03T17:58:40.550Z,42.60
2023-08-03T18:01:14.043Z,42.68
2023-08-03T18:03:45.577Z,42.11
2023-08-03T18:06:16.039Z,42.83
2023-08-03T18:08:45.078Z,43.63
2023-08-03T18:11:13.711Z,43.85
2023-08-03T18:13:41.766Z,43.76
2023-08-03T18:16:10.510Z,43.71
2023-08-03T18:18:40.771Z,43.63
2023-08-03T18:21:15.278Z,43.79
2023-08-03T18:23:43.222Z,43.55
2023-08-03T18:26:11.128Z,43.95
2023-08-03T18:28:39.080Z,44.15
2023-08-03T18:31:08.754Z,44.48
2023-08-03T18:33:37.672Z,44.74
2023-08-03T18:36:08.153Z,44.83
2023-08-03T18:38:38.968Z,44.60
2023-08-03T18:41:10.704Z,44.57
2023-08-03T18:43:40.527Z,43.45
2023-08-03T18:46:11.014Z,43.78
2023-08-03T18:48:40.012Z,43.07
2023-08-03T18:51:09.397Z,43.18
2023-08-03T18:53:40.516Z,44.13
2023-08-03T18:56:10.888Z,44.21
2023-08-03T18:58:40.768Z,43.62
2023-08-03T19:01:10.645Z,44.14
2023-08-03T19:03:40.925Z,44.14
2023-08-03T19:06:09.791Z,44.17
2023-08-03T19:08:39.786Z,44.09
2023-08-03T19:11:09.037Z,44.89
2023-08-03T19:13:37.273Z,44.75
2023-08-03T19:16:05.999Z,44.38
2023-08-03T19:18:34.168Z,44.75
2023-08-03T19:21:02.101Z,44.79
2023-08-03T19:23:30.055Z,44.79
2023-08-03T19:26:01.465Z,44.18
2023-08-03T19:28:29.749Z,43.55
2023-08-03T19:30:59.025Z,43.97
2023-08-03T19:33:27.278Z,44.34
2023-08-03T19:35:55.750Z,44.50
2023-08-03T19:38:23.713Z,44.32
2023-08-03T19:40:54.701Z,44.69
2023-08-03T19:43:24.593Z,44.74
2023-08-03T19:45:52.582Z,44.36
2023-08-03T19:48:20.547Z,44.50
2023-08-03T19:59:31.636Z,45.30
2023-08-03T20:06:16.104Z,45.48
2023-08-03T20:11:15.047Z,45.22
2023-08-03T20:16:41.947Z,45.32
2023-08-03T20:21:33.850Z,45.81
2023-08-03T20:24:01.776Z,46.36
2023-08-03T20:26:35.480Z,45.77
2023-08-03T20:29:21.455Z,46.11
2023-08-03T20:31:49.826Z,45.15
2023-08-03T20:34:17.847Z,46.27
2023-08-03T20:36:46.135Z,45.89
2023-08-03T20:39:34.456Z,46.47
2023-08-03T20:42:42.247Z,46.33
2023-08-03T20:49:54.203Z,45.97
2023-08-03T20:52:22.218Z,46.10
2023-08-03T20:54:50.313Z,46.63
2023-08-03T20:57:19.954Z,46.51
2023-08-03T20:59:48.019Z,46.94
2023-08-03T21:02:17.422Z,47.06
2023-08-03T21:04:49.699Z,46.90
2023-08-03T21:07:18.057Z,47.15
2023-08-03T21:10:50.231Z,47.05
2023-08-03T21:12:34.569Z,47.17
2023-08-03T21:15:02.551Z,47.66
2023-08-03T21:17:32.789Z,47.17
2023-08-03T21:20:01.306Z,47.16
2023-08-03T21:22:29.581Z,47.31
2023-08-03T21:24:57.637Z,47.39
2023-08-03T21:27:25.690Z,47.69
2023-08-03T21:29:53.721Z,48.59
2023-08-03T21:32:22.492Z,48.35
2023-08-03T21:34:52.103Z,48.38
2023-08-03T21:37:20.125Z,48.00
2023-08-03T21:39:48.391Z,48.04
2023-08-03T21:42:16.472Z,48.10
2023-08-03T21:44:44.542Z,48.34
2023-08-03T21:47:14.075Z,48.18
2023-08-03T21:49:42.084Z,48.32
2023-08-03T21:52:11.756Z,49.01
2023-08-03T21:54:39.858Z,49.23
2023-08-03T21:57:08.264Z,49.09
2023-08-03T21:59:36.283Z,49.51
2023-08-03T22:02:04.750Z,49.51
2023-08-03T22:04:32.926Z,49.63
2023-08-03T22:07:01.060Z,49.63
2023-08-03T22:09:30.522Z,49.91
2023-08-03T22:11:58.983Z,50.36
2023-08-03T22:14:27.033Z,50.35
2023-08-03T22:16:55.138Z,50.33
2023-08-03T22:19:23.251Z,50.27
2023-08-03T22:21:52.848Z,50.35
2023-08-03T22:24:21.490Z,51.07
2023-08-03T22:26:51.029Z,50.92
2023-08-03T22:29:19.020Z,51.49
2023-08-03T22:31:47.276Z,52.45
2023-08-03T22:34:15.608Z,51.96
2023-08-03T22:36:43.684Z,52.86
2023-08-03T22:39:11.842Z,53.52
2023-08-03T22:41:39.850Z,52.47
2023-08-03T22:44:09.279Z,52.74
2023-08-03T22:46:37.319Z,52.33
2023-08-03T22:49:05.822Z,52.35
2023-08-03T22:51:33.842Z,52.54
2023-08-03T22:54:01.948Z,52.66
2023-08-03T22:56:29.999Z,52.41
2023-08-03T22:58:58.062Z,52.32
2023-08-03T23:01:27.710Z,52.41
2023-08-03T23:03:55.865Z,52.31
2023-08-03T23:06:24.762Z,52.72
2023-08-03T23:08:53.118Z,53.22
2023-08-03T23:11:21.259Z,52.94
2023-08-03T23:13:49.240Z,52.77
2023-08-03T23:16:20.313Z,53.16
2023-08-03T23:18:50.671Z,52.73
2023-08-03T23:21:18.634Z,52.92
2023-08-03T23:23:46.698Z,52.60
2023-08-03T23:26:16.891Z,52.83
2023-08-03T23:28:45.928Z,52.72
2023-08-03T23:31:14.295Z,52.92
2023-08-03T23:33:42.400Z,52.92
2023-08-03T23:36:11.857Z,54.09
2023-08-03T23:38:39.813Z,53.20
2023-08-03T23:41:07.823Z,53.53
2023-08-03T23:43:35.757Z,53.63
2023-08-03T23:46:03.916Z,53.63
2023-08-03T23:48:32.004Z,53.44
2023-08-03T23:51:00.007Z,53.50
2023-08-03T23:53:29.314Z,53.82
2023-08-03T23:55:57.293Z,54.00
2023-08-03T23:58:25.242Z,53.83
